sensor_id;sensor_type;location;lat;lon;timestamp;temperature;humidity
39219;DHT22;24934;52.752;6.964;2022-08-04T00:01:21;20.50;99.90
39219;DHT22;24934;52.752;6.964;2022-08-04T00:07:03;20.40;99.90
39219;DHT22;24934;52.752;6.964;2022-08-04T00:09:46;20.40;99.90
39219;DHT22;24934;52.752;6.964;2022-08-04T00:12:15;20.30;99.90
39219;DHT22;24934;52.752;6.964;2022-08-04T00:14:47;20.30;99.90
39219;DHT22;24934;52.752;6.964;2022-08-04T00:17:14;20.30;99.90
39219;DHT22;24934;52.752;6.964;2022-08-04T00:19:44;20.30;99.90
39219;DHT22;24934;52.752;6.964;2022-08-04T00:22:12;20.30;99.90
39219;DHT22;24934;52.752;6.964;2022-08-04T00:24:38;20.20;99.90
39219;DHT22;24934;52.752;6.964;2022-08-04T00:27:06;20.20;99.90
39219;DHT22;24934;52.752;6.964;2022-08-04T00:29:32;20.20;99.90
39219;DHT22;24934;52.752;6.964;2022-08-04T00:31:58;20.10;99.90
39219;DHT22;24934;52.752;6.964;2022-08-04T00:34:27;20.10;99.90
39219;DHT22;24934;52.752;6.964;2022-08-04T00:36:55;20.10;99.90
39219;DHT22;24934;52.752;6.964;2022-08-04T00:39:21;20.10;99.90
39219;DHT22;24934;52.752;6.964;2022-08-04T00:41:59;20.00;99.90
39219;DHT22;24934;52.752;6.964;2022-08-04T00:50:04;20.00;99.90
39219;DHT22;24934;52.752;6.964;2022-08-04T01:11:53;19.70;99.90
39219;DHT22;24934;52.752;6.964;2022-08-04T01:14:46;19.80;99.90
39219;DHT22;24934;52.752;6.964;2022-08-04T01:17:19;19.70;99.90
39219;DHT22;24934;52.752;6.964;2022-08-04T01:30:32;19.70;99.90
39219;DHT22;24934;52.752;6.964;2022-08-04T01:33:07;19.60;99.90
39219;DHT22;24934;52.752;6.964;2022-08-04T01:35:45;19.60;99.90
39219;DHT22;24934;52.752;6.964;2022-08-04T01:38:23;19.60;99.90
39219;DHT22;24934;52.752;6.964;2022-08-04T01:40:58;19.60;99.90
39219;DHT22;24934;52.752;6.964;2022-08-04T01:43:26;19.50;99.90
39219;DHT22;24934;52.752;6.964;2022-08-04T01:46:02;19.50;99.90
39219;DHT22;24934;52.752;6.964;2022-08-04T01:48:28;19.50;99.90
39219;DHT22;24934;52.752;6.964;2022-08-04T01:50:57;19.50;99.90
39219;DHT22;24934;52.752;6.964;2022-08-04T01:53:29;19.50;99.90
39219;DHT22;24934;52.752;6.964;2022-08-04T01:55:56;19.40;99.90
39219;DHT22;24934;52.752;6.964;2022-08-04T01:58:23;19.40;99.90
39219;DHT22;24934;52.752;6.964;2022-08-04T02:00:59;19.40;99.90
39219;DHT22;24934;52.752;6.964;2022-08-04T02:03:30;19.40;99.90
39219;DHT22;24934;52.752;6.964;2022-08-04T02:09:11;19.40;99.90
39219;DHT22;24934;52.752;6.964;2022-08-04T02:11:41;19.40;99.90
39219;DHT22;24934;52.752;6.964;2022-08-04T02:14:27;19.40;99.90
39219;DHT22;24934;52.752;6.964;2022-08-04T02:17:14;19.40;99.90
39219;DHT22;24934;52.752;6.964;2022-08-04T02:22:34;19.40;99.90
39219;DHT22;24934;52.752;6.964;2022-08-04T02:25:07;19.40;99.90
39219;DHT22;24934;52.752;6.964;2022-08-04T02:28:04;19.40;99.90
39219;DHT22;24934;52.752;6.964;2022-08-04T02:33:40;19.40;99.90
39219;DHT22;24934;52.752;6.964;2022-08-04T02:36:30;19.40;99.90
39219;DHT22;24934;52.752;6.964;2022-08-04T02:38:58;19.40;99.90
39219;DHT22;24934;52.752;6.964;2022-08-04T02:41:27;19.40;99.90
39219;DHT22;24934;52.752;6.964;2022-08-04T02:44:01;19.40;99.90
39219;DHT22;24934;52.752;6.964;2022-08-04T02:46:27;19.40;99.90
39219;DHT22;24934;52.752;6.964;2022-08-04T02:48:54;19.40;99.90
39219;DHT22;24934;52.752;6.964;2022-08-04T02:51:33;19.40;99.90
39219;DHT22;24934;52.752;6.964;2022-08-04T02:54:02;19.40;99.90
39219;DHT22;24934;52.752;6.964;2022-08-04T02:56:30;19.40;99.90
39219;DHT22;24934;52.752;6.964;2022-08-04T02:59:02;19.40;99.90
39219;DHT22;24934;52.752;6.964;2022-08-04T03:01:29;19.40;99.90
39219;DHT22;24934;52.752;6.964;2022-08-04T03:12:38;19.30;99.90
39219;DHT22;24934;52.752;6.964;2022-08-04T03:24:14;19.20;99.90
39219;DHT22;24934;52.752;6.964;2022-08-04T03:27:01;19.20;99.90
39219;DHT22;24934;52.752;6.964;2022-08-04T03:49:38;19.00;99.90
39219;DHT22;24934;52.752;6.964;2022-08-04T03:52:17;19.00;99.90
39219;DHT22;24934;52.752;6.964;2022-08-04T04:17:56;18.80;99.90
39219;DHT22;24934;52.752;6.964;2022-08-04T04:26:39;18.80;99.90
39219;DHT22;24934;52.752;6.964;2022-08-04T04:37:28;18.90;99.90
39219;DHT22;24934;52.752;6.964;2022-08-04T04:40:18;18.90;99.90
39219;DHT22;24934;52.752;6.964;2022-08-04T04:43:28;18.90;99.90
39219;DHT22;24934;52.752;6.964;2022-08-04T04:46:09;19.00;99.90
39219;DHT22;24934;52.752;6.964;2022-08-04T04:51:32;19.10;99.90
39219;DHT22;24934;52.752;6.964;2022-08-04T04:57:14;19.20;99.90
39219;DHT22;24934;52.752;6.964;2022-08-04T04:59:56;19.30;99.90
39219;DHT22;24934;52.752;6.964;2022-08-04T05:10:47;19.70;99.90
39219;DHT22;24934;52.752;6.964;2022-08-04T05:13:33;20.10;99.90
39219;DHT22;24934;52.752;6.964;2022-08-04T05:16:18;20.70;99.90
39219;DHT22;24934;52.752;6.964;2022-08-04T05:18:48;21.30;99.90
39219;DHT22;24934;52.752;6.964;2022-08-04T05:21:30;21.70;99.90
39219;DHT22;24934;52.752;6.964;2022-08-04T05:24:02;21.90;99.90
39219;DHT22;24934;52.752;6.964;2022-08-04T05:26:32;22.00;99.90
39219;DHT22;24934;52.752;6.964;2022-08-04T05:29:04;21.90;99.90
39219;DHT22;24934;52.752;6.964;2022-08-04T05:31:41;21.80;99.90
39219;DHT22;24934;52.752;6.964;2022-08-04T05:34:14;21.60;99.90
39219;DHT22;24934;52.752;6.964;2022-08-04T05:36:49;21.60;99.90
39219;DHT22;24934;52.752;6.964;2022-08-04T05:39:20;21.50;99.90
39219;DHT22;24934;52.752;6.964;2022-08-04T05:41:47;21.50;99.90
39219;DHT22;24934;52.752;6.964;2022-08-04T05:44:15;21.50;99.90
39219;DHT22;24934;52.752;6.964;2022-08-04T05:46:43;21.50;99.90
39219;DHT22;24934;52.752;6.964;2022-08-04T05:49:10;21.60;99.90
39219;DHT22;24934;52.752;6.964;2022-08-04T05:51:36;21.60;99.90
39219;DHT22;24934;52.752;6.964;2022-08-04T05:54:02;21.60;99.90
39219;DHT22;24934;52.752;6.964;2022-08-04T05:56:30;21.70;99.90
39219;DHT22;24934;52.752;6.964;2022-08-04T05:58:59;21.80;99.90
39219;DHT22;24934;52.752;6.964;2022-08-04T06:01:28;21.90;99.90
39219;DHT22;24934;52.752;6.964;2022-08-04T06:03:55;22.00;99.90
39219;DHT22;24934;52.752;6.964;2022-08-04T06:06:21;22.10;99.90
39219;DHT22;24934;52.752;6.964;2022-08-04T06:08:47;22.20;99.90
39219;DHT22;24934;52.752;6.964;2022-08-04T06:11:13;22.30;99.90
39219;DHT22;24934;52.752;6.964;2022-08-04T06:13:46;22.40;99.90
39219;DHT22;24934;52.752;6.964;2022-08-04T06:16:16;22.50;99.90
39219;DHT22;24934;52.752;6.964;2022-08-04T06:18:48;22.50;99.90
39219;DHT22;24934;52.752;6.964;2022-08-04T06:21:19;22.60;99.90
39219;DHT22;24934;52.752;6.964;2022-08-04T06:23:46;22.60;99.90
39219;DHT22;24934;52.752;6.964;2022-08-04T06:26:17;22.70;99.90
39219;DHT22;24934;52.752;6.964;2022-08-04T06:28:49;22.70;99.90
39219;DHT22;24934;52.752;6.964;2022-08-04T06:31:16;22.80;99.90
39219;DHT22;24934;52.752;6.964;2022-08-04T06:33:59;22.90;99.90
39219;DHT22;24934;52.752;6.964;2022-08-04T06:36:28;22.90;99.90
39219;DHT22;24934;52.752;6.964;2022-08-04T06:38:54;22.90;99.90
39219;DHT22;24934;52.752;6.964;2022-08-04T06:41:20;23.00;99.90
39219;DHT22;24934;52.752;6.964;2022-08-04T06:43:48;23.10;99.90
39219;DHT22;24934;52.752;6.964;2022-08-04T06:46:15;23.10;99.90
39219;DHT22;24934;52.752;6.964;2022-08-04T06:48:41;23.20;99.90
39219;DHT22;24934;52.752;6.964;2022-08-04T06:51:08;23.30;99.90
39219;DHT22;24934;52.752;6.964;2022-08-04T06:53:35;23.40;99.90
39219;DHT22;24934;52.752;6.964;2022-08-04T06:56:01;23.50;99.90
39219;DHT22;24934;52.752;6.964;2022-08-04T06:58:29;23.50;99.90
39219;DHT22;24934;52.752;6.964;2022-08-04T07:00:56;23.70;99.90
39219;DHT22;24934;52.752;6.964;2022-08-04T07:03:26;23.80;99.90
39219;DHT22;24934;52.752;6.964;2022-08-04T07:05:52;23.90;99.90
39219;DHT22;24934;52.752;6.964;2022-08-04T07:08:19;23.90;99.90
39219;DHT22;24934;52.752;6.964;2022-08-04T07:10:46;24.10;99.90
39219;DHT22;24934;52.752;6.964;2022-08-04T07:13:12;24.30;99.90
39219;DHT22;24934;52.752;6.964;2022-08-04T07:15:40;24.40;99.90
39219;DHT22;24934;52.752;6.964;2022-08-04T07:18:08;24.60;99.90
39219;DHT22;24934;52.752;6.964;2022-08-04T07:20:33;24.70;99.90
39219;DHT22;24934;52.752;6.964;2022-08-04T07:22:59;24.70;99.90
39219;DHT22;24934;52.752;6.964;2022-08-04T07:25:26;24.80;99.90
39219;DHT22;24934;52.752;6.964;2022-08-04T07:27:52;24.90;99.90
39219;DHT22;24934;52.752;6.964;2022-08-04T07:30:18;24.90;99.90
39219;DHT22;24934;52.752;6.964;2022-08-04T07:32:44;25.00;99.90
39219;DHT22;24934;52.752;6.964;2022-08-04T07:35:11;25.10;99.90
39219;DHT22;24934;52.752;6.964;2022-08-04T07:37:37;25.20;99.90
39219;DHT22;24934;52.752;6.964;2022-08-04T07:40:03;25.30;99.90
39219;DHT22;24934;52.752;6.964;2022-08-04T07:42:29;25.40;99.90
39219;DHT22;24934;52.752;6.964;2022-08-04T07:44:55;25.40;99.90
39219;DHT22;24934;52.752;6.964;2022-08-04T07:47:23;25.50;99.90
39219;DHT22;24934;52.752;6.964;2022-08-04T07:49:48;25.60;99.90
39219;DHT22;24934;52.752;6.964;2022-08-04T07:52:15;25.80;99.90
39219;DHT22;24934;52.752;6.964;2022-08-04T07:54:41;26.00;99.90
39219;DHT22;24934;52.752;6.964;2022-08-04T07:57:07;26.20;99.90
39219;DHT22;24934;52.752;6.964;2022-08-04T07:59:34;26.40;99.90
39219;DHT22;24934;52.752;6.964;2022-08-04T08:02:00;26.50;99.90
39219;DHT22;24934;52.752;6.964;2022-08-04T08:04:30;26.60;99.90
39219;DHT22;24934;52.752;6.964;2022-08-04T08:06:57;26.60;99.90
39219;DHT22;24934;52.752;6.964;2022-08-04T08:09:23;26.90;99.90
39219;DHT22;24934;52.752;6.964;2022-08-04T08:11:51;26.70;99.90
39219;DHT22;24934;52.752;6.964;2022-08-04T08:14:17;26.60;99.90
39219;DHT22;24934;52.752;6.964;2022-08-04T08:16:44;26.70;99.90
39219;DHT22;24934;52.752;6.964;2022-08-04T08:19:10;26.70;99.90
39219;DHT22;24934;52.752;6.964;2022-08-04T08:21:36;26.60;99.90
39219;DHT22;24934;52.752;6.964;2022-08-04T08:24:02;26.60;99.90
39219;DHT22;24934;52.752;6.964;2022-08-04T08:26:31;26.60;99.90
39219;DHT22;24934;52.752;6.964;2022-08-04T08:28:58;26.90;99.90
39219;DHT22;24934;52.752;6.964;2022-08-04T08:31:23;27.00;99.90
39219;DHT22;24934;52.752;6.964;2022-08-04T08:33:50;27.00;99.90
39219;DHT22;24934;52.752;6.964;2022-08-04T08:36:28;27.00;99.90
39219;DHT22;24934;52.752;6.964;2022-08-04T08:39:06;27.00;99.90
39219;DHT22;24934;52.752;6.964;2022-08-04T08:59:07;30.00;99.90
39219;DHT22;24934;52.752;6.964;2022-08-04T09:09:27;30.40;99.90
39219;DHT22;24934;52.752;6.964;2022-08-04T09:12:27;31.10;99.90
39219;DHT22;24934;52.752;6.964;2022-08-04T09:17:51;31.10;99.90
39219;DHT22;24934;52.752;6.964;2022-08-04T09:20:38;31.30;99.90
39219;DHT22;24934;52.752;6.964;2022-08-04T09:25:45;31.10;99.90
39219;DHT22;24934;52.752;6.964;2022-08-04T09:28:18;31.40;99.90
39219;DHT22;24934;52.752;6.964;2022-08-04T09:30:54;31.30;99.90
39219;DHT22;24934;52.752;6.964;2022-08-04T09:38:43;31.30;99.90
39219;DHT22;24934;52.752;6.964;2022-08-04T09:41:50;31.40;99.90
39219;DHT22;24934;52.752;6.964;2022-08-04T09:47:16;31.70;99.90
39219;DHT22;24934;52.752;6.964;2022-08-04T09:49:54;31.90;99.90
39219;DHT22;24934;52.752;6.964;2022-08-04T09:55:40;32.20;99.90
39219;DHT22;24934;52.752;6.964;2022-08-04T10:00:52;32.10;99.90
39219;DHT22;24934;52.752;6.964;2022-08-04T10:03:22;32.60;99.90
39219;DHT22;24934;52.752;6.964;2022-08-04T10:08:35;32.40;99.90
39219;DHT22;24934;52.752;6.964;2022-08-04T10:11:08;32.80;99.90
39219;DHT22;24934;52.752;6.964;2022-08-04T10:14:02;33.10;99.90
39219;DHT22;24934;52.752;6.964;2022-08-04T10:19:26;32.60;99.90
39219;DHT22;24934;52.752;6.964;2022-08-04T10:29:46;33.20;99.90
39219;DHT22;24934;52.752;6.964;2022-08-04T10:32:27;33.60;99.90
39219;DHT22;24934;52.752;6.964;2022-08-04T10:37:49;33.90;99.90
39219;DHT22;24934;52.752;6.964;2022-08-04T10:40:35;33.90;99.90
39219;DHT22;24934;52.752;6.964;2022-08-04T10:54:09;33.90;99.90
39219;DHT22;24934;52.752;6.964;2022-08-04T10:59:34;34.70;99.90
39219;DHT22;24934;52.752;6.964;2022-08-04T11:02:27;34.80;99.90
39219;DHT22;24934;52.752;6.964;2022-08-04T11:07:43;35.30;99.90
39219;DHT22;24934;52.752;6.964;2022-08-04T11:10:09;35.20;99.90
39219;DHT22;24934;52.752;6.964;2022-08-04T11:12:37;35.50;99.90
39219;DHT22;24934;52.752;6.964;2022-08-04T11:17:49;35.40;99.90
39219;DHT22;24934;52.752;6.964;2022-08-04T11:20:29;35.50;99.90
39219;DHT22;24934;52.752;6.964;2022-08-04T11:23:14;35.50;99.90
39219;DHT22;24934;52.752;6.964;2022-08-04T11:31:25;35.10;99.90
39219;DHT22;24934;52.752;6.964;2022-08-04T11:37:10;34.50;99.90
39219;DHT22;24934;52.752;6.964;2022-08-04T11:39:47;34.20;99.90
39219;DHT22;24934;52.752;6.964;2022-08-04T11:42:22;34.00;99.90
39219;DHT22;24934;52.752;6.964;2022-08-04T11:52:29;33.30;99.90
39219;DHT22;24934;52.752;6.964;2022-08-04T11:54:57;33.10;99.90
39219;DHT22;24934;52.752;6.964;2022-08-04T11:57:24;32.70;99.90
39219;DHT22;24934;52.752;6.964;2022-08-04T11:59:51;32.50;99.90
39219;DHT22;24934;52.752;6.964;2022-08-04T12:03:21;31.90;99.90
39219;DHT22;24934;52.752;6.964;2022-08-04T12:05:34;31.00;99.90
39219;DHT22;24934;52.752;6.964;2022-08-04T12:08:32;30.60;99.90
39219;DHT22;24934;52.752;6.964;2022-08-04T12:14:20;30.00;99.90
39219;DHT22;24934;52.752;6.964;2022-08-04T12:16:59;29.70;99.90
39219;DHT22;24934;52.752;6.964;2022-08-04T12:19:41;29.40;99.90
39219;DHT22;24934;52.752;6.964;2022-08-04T12:22:23;29.20;99.90
39219;DHT22;24934;52.752;6.964;2022-08-04T12:24:53;28.90;99.90
39219;DHT22;24934;52.752;6.964;2022-08-04T12:27:26;28.70;99.90
39219;DHT22;24934;52.752;6.964;2022-08-04T12:29:54;28.60;99.90
39219;DHT22;24934;52.752;6.964;2022-08-04T12:33:06;28.40;99.90
39219;DHT22;24934;52.752;6.964;2022-08-04T12:35:50;28.20;99.90
39219;DHT22;24934;52.752;6.964;2022-08-04T12:38:20;28.10;99.90
39219;DHT22;24934;52.752;6.964;2022-08-04T12:40:49;27.90;99.90
39219;DHT22;24934;52.752;6.964;2022-08-04T12:43:28;27.70;99.90
39219;DHT22;24934;52.752;6.964;2022-08-04T12:46:03;27.50;99.90
39219;DHT22;24934;52.752;6.964;2022-08-04T12:48:31;27.30;99.90
39219;DHT22;24934;52.752;6.964;2022-08-04T12:50:57;27.10;99.90
39219;DHT22;24934;52.752;6.964;2022-08-04T12:53:34;26.80;99.90
39219;DHT22;24934;52.752;6.964;2022-08-04T12:56:02;26.60;99.90
39219;DHT22;24934;52.752;6.964;2022-08-04T12:58:32;26.10;99.90
39219;DHT22;24934;52.752;6.964;2022-08-04T13:01:05;25.60;99.90
39219;DHT22;24934;52.752;6.964;2022-08-04T13:03:44;25.00;99.90
39219;DHT22;24934;52.752;6.964;2022-08-04T13:06:13;24.60;99.90
39219;DHT22;24934;52.752;6.964;2022-08-04T13:08:41;24.40;99.90
39219;DHT22;24934;52.752;6.964;2022-08-04T13:11:09;24.20;99.90
39219;DHT22;24934;52.752;6.964;2022-08-04T13:13:37;24.00;99.90
39219;DHT22;24934;52.752;6.964;2022-08-04T13:16:07;23.70;99.90
39219;DHT22;24934;52.752;6.964;2022-08-04T13:18:36;23.80;99.90
39219;DHT22;24934;52.752;6.964;2022-08-04T13:21:24;23.80;99.90
39219;DHT22;24934;52.752;6.964;2022-08-04T13:24:02;23.90;99.90
39219;DHT22;24934;52.752;6.964;2022-08-04T13:26:28;24.00;99.90
39219;DHT22;24934;52.752;6.964;2022-08-04T13:29:00;24.10;99.90
39219;DHT22;24934;52.752;6.964;2022-08-04T13:31:27;24.20;99.90
39219;DHT22;24934;52.752;6.964;2022-08-04T13:34:02;24.40;99.90
39219;DHT22;24934;52.752;6.964;2022-08-04T13:36:29;24.70;99.90
39219;DHT22;24934;52.752;6.964;2022-08-04T13:39:03;24.90;99.90
39219;DHT22;24934;52.752;6.964;2022-08-04T13:41:33;25.20;99.90
39219;DHT22;24934;52.752;6.964;2022-08-04T13:44:02;25.40;99.90
39219;DHT22;24934;52.752;6.964;2022-08-04T13:46:31;25.70;99.90
39219;DHT22;24934;52.752;6.964;2022-08-04T13:49:00;26.20;99.90
39219;DHT22;24934;52.752;6.964;2022-08-04T13:51:27;26.70;99.90
39219;DHT22;24934;52.752;6.964;2022-08-04T13:53:57;26.90;99.90
39219;DHT22;24934;52.752;6.964;2022-08-04T13:56:25;26.80;99.90
39219;DHT22;24934;52.752;6.964;2022-08-04T13:58:55;27.00;99.90
39219;DHT22;24934;52.752;6.964;2022-08-04T14:01:25;27.40;99.90
39219;DHT22;24934;52.752;6.964;2022-08-04T14:03:57;27.60;99.90
39219;DHT22;24934;52.752;6.964;2022-08-04T14:06:52;27.80;99.90
39219;DHT22;24934;52.752;6.964;2022-08-04T14:09:21;27.80;99.90
39219;DHT22;24934;52.752;6.964;2022-08-04T14:11:51;27.60;99.90
39219;DHT22;24934;52.752;6.964;2022-08-04T14:14:29;27.60;99.90
39219;DHT22;24934;52.752;6.964;2022-08-04T14:17:04;27.90;99.90
39219;DHT22;24934;52.752;6.964;2022-08-04T14:19:55;28.10;99.90
39219;DHT22;24934;52.752;6.964;2022-08-04T14:25:13;27.90;99.90
39219;DHT22;24934;52.752;6.964;2022-08-04T14:30:32;28.70;99.90
39219;DHT22;24934;52.752;6.964;2022-08-04T14:33:10;29.00;99.90
39219;DHT22;24934;52.752;6.964;2022-08-04T14:35:37;29.10;99.90
39219;DHT22;24934;52.752;6.964;2022-08-04T14:38:08;29.40;99.90
39219;DHT22;24934;52.752;6.964;2022-08-04T14:40:41;29.90;99.90
39219;DHT22;24934;52.752;6.964;2022-08-04T14:43:13;30.20;99.90
39219;DHT22;24934;52.752;6.964;2022-08-04T14:45:43;30.20;99.90
39219;DHT22;24934;52.752;6.964;2022-08-04T14:48:16;29.90;99.90
39219;DHT22;24934;52.752;6.964;2022-08-04T14:50:48;30.20;99.90
39219;DHT22;24934;52.752;6.964;2022-08-04T14:53:16;30.30;99.90
39219;DHT22;24934;52.752;6.964;2022-08-04T14:55:50;30.50;99.90
39219;DHT22;24934;52.752;6.964;2022-08-04T15:00:54;29.90;99.90
39219;DHT22;24934;52.752;6.964;2022-08-04T15:03:20;30.10;99.90
39219;DHT22;24934;52.752;6.964;2022-08-04T15:05:48;30.20;99.90
39219;DHT22;24934;52.752;6.964;2022-08-04T15:08:14;30.20;99.90
39219;DHT22;24934;52.752;6.964;2022-08-04T15:10:41;30.30;99.90
39219;DHT22;24934;52.752;6.964;2022-08-04T15:13:07;30.60;99.90
39219;DHT22;24934;52.752;6.964;2022-08-04T15:15:33;30.80;99.90
39219;DHT22;24934;52.752;6.964;2022-08-04T15:17:59;30.70;99.90
39219;DHT22;24934;52.752;6.964;2022-08-04T15:20:25;30.60;99.90
39219;DHT22;24934;52.752;6.964;2022-08-04T15:22:51;30.50;99.90
39219;DHT22;24934;52.752;6.964;2022-08-04T15:25:17;30.10;99.90
39219;DHT22;24934;52.752;6.964;2022-08-04T15:27:47;29.90;99.90
39219;DHT22;24934;52.752;6.964;2022-08-04T15:30:14;29.60;99.90
39219;DHT22;24934;52.752;6.964;2022-08-04T15:32:49;29.80;99.90
39219;DHT22;24934;52.752;6.964;2022-08-04T15:35:23;29.80;99.90
39219;DHT22;24934;52.752;6.964;2022-08-04T15:45:58;28.40;99.90
39219;DHT22;24934;52.752;6.964;2022-08-04T15:48:26;27.80;99.90
39219;DHT22;24934;52.752;6.964;2022-08-04T15:53:29;27.50;99.90
39219;DHT22;24934;52.752;6.964;2022-08-04T15:55:55;27.30;99.90
39219;DHT22;24934;52.752;6.964;2022-08-04T15:58:22;27.30;99.90
39219;DHT22;24934;52.752;6.964;2022-08-04T16:16:45;27.60;99.90
39219;DHT22;24934;52.752;6.964;2022-08-04T16:19:16;27.70;99.90
39219;DHT22;24934;52.752;6.964;2022-08-04T16:21:52;28.00;99.90
39219;DHT22;24934;52.752;6.964;2022-08-04T16:24:20;27.90;99.90
39219;DHT22;24934;52.752;6.964;2022-08-04T16:26:51;27.90;99.90
39219;DHT22;24934;52.752;6.964;2022-08-04T16:34:34;27.80;99.90
39219;DHT22;24934;52.752;6.964;2022-08-04T16:37:03;27.80;99.90
39219;DHT22;24934;52.752;6.964;2022-08-04T16:39:29;27.80;99.90
39219;DHT22;24934;52.752;6.964;2022-08-04T16:41:55;27.50;99.90
39219;DHT22;24934;52.752;6.964;2022-08-04T16:44:36;27.40;99.90
39219;DHT22;24934;52.752;6.964;2022-08-04T16:47:05;27.10;99.90
39219;DHT22;24934;52.752;6.964;2022-08-04T16:49:32;26.90;99.90
39219;DHT22;24934;52.752;6.964;2022-08-04T16:54:31;26.80;99.90
39219;DHT22;24934;52.752;6.964;2022-08-04T16:56:58;26.70;99.90
39219;DHT22;24934;52.752;6.964;2022-08-04T16:59:24;26.60;99.90
39219;DHT22;24934;52.752;6.964;2022-08-04T17:01:52;26.60;99.90
39219;DHT22;24934;52.752;6.964;2022-08-04T17:04:27;26.70;99.90
39219;DHT22;24934;52.752;6.964;2022-08-04T17:07:00;26.70;99.90
39219;DHT22;24934;52.752;6.964;2022-08-04T17:09:30;26.60;99.90
39219;DHT22;24934;52.752;6.964;2022-08-04T17:11:58;26.40;99.90
39219;DHT22;24934;52.752;6.964;2022-08-04T17:14:29;26.30;99.90
39219;DHT22;24934;52.752;6.964;2022-08-04T17:16:57;25.90;99.90
39219;DHT22;24934;52.752;6.964;2022-08-04T17:19:23;25.70;99.90
39219;DHT22;24934;52.752;6.964;2022-08-04T17:21:50;25.40;99.90
39219;DHT22;24934;52.752;6.964;2022-08-04T17:24:16;25.20;99.90
39219;DHT22;24934;52.752;6.964;2022-08-04T17:26:43;24.90;99.90
39219;DHT22;24934;52.752;6.964;2022-08-04T17:29:08;24.60;99.90
39219;DHT22;24934;52.752;6.964;2022-08-04T17:31:38;24.50;99.90
39219;DHT22;24934;52.752;6.964;2022-08-04T17:34:10;24.40;99.90
39219;DHT22;24934;52.752;6.964;2022-08-04T17:36:37;24.20;99.90
39219;DHT22;24934;52.752;6.964;2022-08-04T17:39:11;24.00;99.90
39219;DHT22;24934;52.752;6.964;2022-08-04T17:41:39;24.00;99.90
39219;DHT22;24934;52.752;6.964;2022-08-04T17:44:05;23.90;99.90
39219;DHT22;24934;52.752;6.964;2022-08-04T17:46:35;23.90;99.90
39219;DHT22;24934;52.752;6.964;2022-08-04T17:49:19;23.70;99.90
39219;DHT22;24934;52.752;6.964;2022-08-04T17:51:50;23.50;99.90
39219;DHT22;24934;52.752;6.964;2022-08-04T17:56:54;23.30;99.90
39219;DHT22;24934;52.752;6.964;2022-08-04T17:59:26;23.20;99.90
39219;DHT22;24934;52.752;6.964;2022-08-04T18:02:00;23.30;99.90
39219;DHT22;24934;52.752;6.964;2022-08-04T18:07:12;23.40;99.90
39219;DHT22;24934;52.752;6.964;2022-08-04T18:09:40;23.40;99.90
39219;DHT22;24934;52.752;6.964;2022-08-04T18:12:19;23.40;99.90
39219;DHT22;24934;52.752;6.964;2022-08-04T18:14:50;23.40;99.90
39219;DHT22;24934;52.752;6.964;2022-08-04T18:17:55;23.20;99.90
39219;DHT22;24934;52.752;6.964;2022-08-04T18:20:24;23.10;99.90
39219;DHT22;24934;52.752;6.964;2022-08-04T18:22:49;23.00;99.90
39219;DHT22;24934;52.752;6.964;2022-08-04T18:25:17;23.00;99.90
39219;DHT22;24934;52.752;6.964;2022-08-04T18:27:53;22.80;99.90
39219;DHT22;24934;52.752;6.964;2022-08-04T18:30:24;22.80;99.90
39219;DHT22;24934;52.752;6.964;2022-08-04T18:32:51;22.70;99.90
39219;DHT22;24934;52.752;6.964;2022-08-04T18:35:20;22.70;99.90
39219;DHT22;24934;52.752;6.964;2022-08-04T18:37:48;22.70;99.90
39219;DHT22;24934;52.752;6.964;2022-08-04T18:40:17;22.60;99.90
39219;DHT22;24934;52.752;6.964;2022-08-04T18:42:42;22.40;99.90
39219;DHT22;24934;52.752;6.964;2022-08-04T18:45:10;22.30;99.90
39219;DHT22;24934;52.752;6.964;2022-08-04T18:47:40;22.20;99.90
39219;DHT22;24934;52.752;6.964;2022-08-04T18:50:06;22.10;99.90
39219;DHT22;24934;52.752;6.964;2022-08-04T18:52:33;22.10;99.90
39219;DHT22;24934;52.752;6.964;2022-08-04T18:54:58;22.00;99.90
39219;DHT22;24934;52.752;6.964;2022-08-04T18:57:30;21.90;99.90
39219;DHT22;24934;52.752;6.964;2022-08-04T18:59:56;21.80;99.90
39219;DHT22;24934;52.752;6.964;2022-08-04T19:02:25;21.60;99.90
39219;DHT22;24934;52.752;6.964;2022-08-04T19:04:50;21.50;99.90
39219;DHT22;24934;52.752;6.964;2022-08-04T19:07:18;21.40;99.90
39219;DHT22;24934;52.752;6.964;2022-08-04T19:09:44;21.20;99.90
39219;DHT22;24934;52.752;6.964;2022-08-04T19:12:10;21.20;99.90
39219;DHT22;24934;52.752;6.964;2022-08-04T19:14:36;21.10;99.90
39219;DHT22;24934;52.752;6.964;2022-08-04T19:17:02;21.00;99.90
39219;DHT22;24934;52.752;6.964;2022-08-04T19:19:28;20.90;99.90
39219;DHT22;24934;52.752;6.964;2022-08-04T19:21:53;20.80;99.90
39219;DHT22;24934;52.752;6.964;2022-08-04T19:24:22;20.80;99.90
39219;DHT22;24934;52.752;6.964;2022-08-04T19:26:48;20.80;99.90
39219;DHT22;24934;52.752;6.964;2022-08-04T19:29:13;20.70;99.90
39219;DHT22;24934;52.752;6.964;2022-08-04T19:31:40;20.60;99.90
39219;DHT22;24934;52.752;6.964;2022-08-04T19:34:06;20.60;99.90
39219;DHT22;24934;52.752;6.964;2022-08-04T19:36:32;20.50;99.90
39219;DHT22;24934;52.752;6.964;2022-08-04T19:38:59;20.40;99.90
39219;DHT22;24934;52.752;6.964;2022-08-04T19:41:26;20.40;99.90
39219;DHT22;24934;52.752;6.964;2022-08-04T19:43:52;20.30;99.90
39219;DHT22;24934;52.752;6.964;2022-08-04T19:46:17;20.30;99.90
39219;DHT22;24934;52.752;6.964;2022-08-04T19:48:43;20.20;99.90
39219;DHT22;24934;52.752;6.964;2022-08-04T19:51:09;20.20;99.90
39219;DHT22;24934;52.752;6.964;2022-08-04T19:53:35;20.20;99.90
39219;DHT22;24934;52.752;6.964;2022-08-04T19:56:00;20.10;99.90
39219;DHT22;24934;52.752;6.964;2022-08-04T19:58:26;20.10;99.90
39219;DHT22;24934;52.752;6.964;2022-08-04T20:00:55;20.10;99.90
39219;DHT22;24934;52.752;6.964;2022-08-04T20:03:23;20.00;99.90
39219;DHT22;24934;52.752;6.964;2022-08-04T20:05:49;19.90;99.90
39219;DHT22;24934;52.752;6.964;2022-08-04T20:08:14;19.80;99.90
39219;DHT22;24934;52.752;6.964;2022-08-04T20:10:40;19.80;99.90
39219;DHT22;24934;52.752;6.964;2022-08-04T20:13:06;19.70;99.90
39219;DHT22;24934;52.752;6.964;2022-08-04T20:15:32;19.60;99.90
39219;DHT22;24934;52.752;6.964;2022-08-04T20:18:00;19.60;99.90
39219;DHT22;24934;52.752;6.964;2022-08-04T20:20:25;19.50;99.90
39219;DHT22;24934;52.752;6.964;2022-08-04T20:22:51;19.40;99.90
39219;DHT22;24934;52.752;6.964;2022-08-04T20:25:19;19.30;99.90
39219;DHT22;24934;52.752;6.964;2022-08-04T20:27:45;19.20;99.90
39219;DHT22;24934;52.752;6.964;2022-08-04T20:30:13;19.20;99.90
39219;DHT22;24934;52.752;6.964;2022-08-04T20:32:39;19.10;99.90
39219;DHT22;24934;52.752;6.964;2022-08-04T20:35:07;19.00;99.90
39219;DHT22;24934;52.752;6.964;2022-08-04T20:37:40;18.90;99.90
39219;DHT22;24934;52.752;6.964;2022-08-04T20:40:06;18.80;99.90